<?xml version="1.0" encoding="UTF-8" standalone="no" ?>
<gpx xmlns="http://www.topografix.com/GPX/1/1" xmlns:xsi="http://www.w3.org/2001/XMLSchema-instance" xsi:schemaLocation="http://www.topografix.com/GPX/1/1 http://www.topografix.com/GPX/1/1/gpx.xsd" version="1.1" creator="VisuGPX - https://www.visugpx.com">
  <metadata>
    <name>Balade découverte Tournemire</name>
    <desc><![CDATA[Tourisme dans ce joli village médiéval dont le château attire tous les regards. La petite montée au calvaire est relativement facile et offre un magnifique panorama sur la vallée]]></desc>
  </metadata>
  <trk>
    <name><![CDATA[SityTrail - Balade découverte Tournemire]]></name>
    <desc><![CDATA[Tourisme dans ce joli village médiéval dont le château attire tous les regards. La petite montée au calvaire est relativement facile et offre un magnifique panorama sur la vallée]]></desc>
    <trkseg>
      <trkpt lat="45.05335" lon="2.48547">
        <ele>807</ele>
        <time>2025-05-03T12:58:13.932+00:00</time>
      </trkpt>
      <trkpt lat="45.05335" lon="2.48546">
        <ele>807</ele>
        <time>2025-05-03T12:58:15.499+00:00</time>
      </trkpt>
      <trkpt lat="45.05337" lon="2.48542">
        <ele>807</ele>
        <time>2025-05-03T12:58:19.931+00:00</time>
      </trkpt>
      <trkpt lat="45.05336" lon="2.48538">
        <ele>808</ele>
        <time>2025-05-03T12:58:24.787+00:00</time>
      </trkpt>
      <trkpt lat="45.05338" lon="2.48533">
        <ele>808</ele>
        <time>2025-05-03T12:58:28.978+00:00</time>
      </trkpt>
      <trkpt lat="45.05337" lon="2.4853">
        <ele>808</ele>
        <time>2025-05-03T12:58:33.630+00:00</time>
      </trkpt>
      <trkpt lat="45.05338" lon="2.48525">
        <ele>808</ele>
        <time>2025-05-03T12:58:37.931+00:00</time>
      </trkpt>
      <trkpt lat="45.05339" lon="2.48518">
        <ele>808</ele>
        <time>2025-05-03T12:58:42.745+00:00</time>
      </trkpt>
      <trkpt lat="45.05337" lon="2.48514">
        <ele>807</ele>
        <time>2025-05-03T12:58:46.910+00:00</time>
      </trkpt>
      <trkpt lat="45.05336" lon="2.48515">
        <ele>808</ele>
        <time>2025-05-03T12:58:55.931+00:00</time>
      </trkpt>
      <trkpt lat="45.05336" lon="2.48515">
        <ele>808</ele>
        <time>2025-05-03T12:59:01.931+00:00</time>
      </trkpt>
      <trkpt lat="45.05336" lon="2.48515">
        <ele>808</ele>
        <time>2025-05-03T12:59:07.931+00:00</time>
      </trkpt>
      <trkpt lat="45.05334" lon="2.48509">
        <ele>807</ele>
        <time>2025-05-03T12:59:12.865+00:00</time>
      </trkpt>
      <trkpt lat="45.05329" lon="2.48507">
        <ele>807</ele>
        <time>2025-05-03T12:59:16.931+00:00</time>
      </trkpt>
      <trkpt lat="45.05333" lon="2.48504">
        <ele>807</ele>
        <time>2025-05-03T13:00:21.931+00:00</time>
      </trkpt>
      <trkpt lat="45.05332" lon="2.48504">
        <ele>807</ele>
        <time>2025-05-03T13:00:26.930+00:00</time>
      </trkpt>
      <trkpt lat="45.05334" lon="2.485">
        <ele>807</ele>
        <time>2025-05-03T13:00:31.444+00:00</time>
      </trkpt>
      <trkpt lat="45.05335" lon="2.48497">
        <ele>807</ele>
        <time>2025-05-03T13:00:32.519+00:00</time>
      </trkpt>
      <trkpt lat="45.05335" lon="2.48492">
        <ele>807</ele>
        <time>2025-05-03T13:00:41.416+00:00</time>
      </trkpt>
      <trkpt lat="45.05335" lon="2.48494">
        <ele>807</ele>
        <time>2025-05-03T13:00:46.580+00:00</time>
      </trkpt>
      <trkpt lat="45.05335" lon="2.48488">
        <ele>807</ele>
        <time>2025-05-03T13:00:50.693+00:00</time>
      </trkpt>
      <trkpt lat="45.05334" lon="2.48518">
        <ele>808</ele>
        <time>2025-05-03T13:00:55.329+00:00</time>
      </trkpt>
      <trkpt lat="45.05333" lon="2.48518">
        <ele>808</ele>
        <time>2025-05-03T13:00:59.931+00:00</time>
      </trkpt>
      <trkpt lat="45.05333" lon="2.48517">
        <ele>808</ele>
        <time>2025-05-03T13:03:40.930+00:00</time>
      </trkpt>
      <trkpt lat="45.05337" lon="2.48514">
        <ele>807</ele>
        <time>2025-05-03T13:03:44.930+00:00</time>
      </trkpt>
      <trkpt lat="45.05337" lon="2.48506">
        <ele>807</ele>
        <time>2025-05-03T13:03:49.386+00:00</time>
      </trkpt>
      <trkpt lat="45.05335" lon="2.48497">
        <ele>807</ele>
        <time>2025-05-03T13:03:53.807+00:00</time>
      </trkpt>
      <trkpt lat="45.05335" lon="2.4849">
        <ele>807</ele>
        <time>2025-05-03T13:03:57.972+00:00</time>
      </trkpt>
      <trkpt lat="45.05334" lon="2.48487">
        <ele>807</ele>
        <time>2025-05-03T13:04:02.509+00:00</time>
      </trkpt>
      <trkpt lat="45.05335" lon="2.48481">
        <ele>806</ele>
        <time>2025-05-03T13:04:06.841+00:00</time>
      </trkpt>
      <trkpt lat="45.05337" lon="2.48475">
        <ele>806</ele>
        <time>2025-05-03T13:04:10.930+00:00</time>
      </trkpt>
      <trkpt lat="45.05337" lon="2.48468">
        <ele>806</ele>
        <time>2025-05-03T13:04:15.930+00:00</time>
      </trkpt>
      <trkpt lat="45.05337" lon="2.48461">
        <ele>806</ele>
        <time>2025-05-03T13:04:20.308+00:00</time>
      </trkpt>
      <trkpt lat="45.05337" lon="2.48455">
        <ele>804</ele>
        <time>2025-05-03T13:04:24.423+00:00</time>
      </trkpt>
      <trkpt lat="45.05336" lon="2.4845">
        <ele>804</ele>
        <time>2025-05-03T13:04:28.718+00:00</time>
      </trkpt>
      <trkpt lat="45.05334" lon="2.4845">
        <ele>804</ele>
        <time>2025-05-03T13:04:32.930+00:00</time>
      </trkpt>
      <trkpt lat="45.05333" lon="2.48449">
        <ele>804</ele>
        <time>2025-05-03T13:04:37.652+00:00</time>
      </trkpt>
      <trkpt lat="45.05334" lon="2.48442">
        <ele>804</ele>
        <time>2025-05-03T13:04:41.930+00:00</time>
      </trkpt>
      <trkpt lat="45.05335" lon="2.48434">
        <ele>804</ele>
        <time>2025-05-03T13:04:46.930+00:00</time>
      </trkpt>
      <trkpt lat="45.05337" lon="2.4843">
        <ele>803</ele>
        <time>2025-05-03T13:04:50.930+00:00</time>
      </trkpt>
      <trkpt lat="45.0534" lon="2.48423">
        <ele>803</ele>
        <time>2025-05-03T13:04:55.930+00:00</time>
      </trkpt>
      <trkpt lat="45.05342" lon="2.48419">
        <ele>803</ele>
        <time>2025-05-03T13:05:00.486+00:00</time>
      </trkpt>
      <trkpt lat="45.05343" lon="2.48417">
        <ele>803</ele>
        <time>2025-05-03T13:05:05.719+00:00</time>
      </trkpt>
      <trkpt lat="45.05348" lon="2.48414">
        <ele>807</ele>
        <time>2025-05-03T13:05:10.725+00:00</time>
      </trkpt>
      <trkpt lat="45.0535" lon="2.48409">
        <ele>807</ele>
        <time>2025-05-03T13:05:14.928+00:00</time>
      </trkpt>
      <trkpt lat="45.05353" lon="2.48412">
        <ele>807</ele>
        <time>2025-05-03T13:05:19.930+00:00</time>
      </trkpt>
      <trkpt lat="45.05353" lon="2.48413">
        <ele>807</ele>
        <time>2025-05-03T13:05:23.930+00:00</time>
      </trkpt>
      <trkpt lat="45.05354" lon="2.48411">
        <ele>807</ele>
        <time>2025-05-03T13:05:28.930+00:00</time>
      </trkpt>
      <trkpt lat="45.05357" lon="2.48405">
        <ele>807</ele>
        <time>2025-05-03T13:05:33.528+00:00</time>
      </trkpt>
      <trkpt lat="45.05358" lon="2.48399">
        <ele>805</ele>
        <time>2025-05-03T13:05:37.584+00:00</time>
      </trkpt>
      <trkpt lat="45.05358" lon="2.48392">
        <ele>805</ele>
        <time>2025-05-03T13:05:41.930+00:00</time>
      </trkpt>
      <trkpt lat="45.05361" lon="2.48386">
        <ele>805</ele>
        <time>2025-05-03T13:05:46.645+00:00</time>
      </trkpt>
      <trkpt lat="45.05362" lon="2.48382">
        <ele>805</ele>
        <time>2025-05-03T13:05:50.857+00:00</time>
      </trkpt>
      <trkpt lat="45.05366" lon="2.48378">
        <ele>805</ele>
        <time>2025-05-03T13:05:55.539+00:00</time>
      </trkpt>
      <trkpt lat="45.05367" lon="2.48364">
        <ele>804</ele>
        <time>2025-05-03T13:06:17.546+00:00</time>
      </trkpt>
      <trkpt lat="45.05371" lon="2.48357">
        <ele>804</ele>
        <time>2025-05-03T13:06:21.930+00:00</time>
      </trkpt>
      <trkpt lat="45.05374" lon="2.4835">
        <ele>804</ele>
        <time>2025-05-03T13:06:26.218+00:00</time>
      </trkpt>
      <trkpt lat="45.05378" lon="2.48341">
        <ele>807</ele>
        <time>2025-05-03T13:06:30.622+00:00</time>
      </trkpt>
      <trkpt lat="45.05378" lon="2.48331">
        <ele>807</ele>
        <time>2025-05-03T13:06:35.604+00:00</time>
      </trkpt>
      <trkpt lat="45.05375" lon="2.48325">
        <ele>800</ele>
        <time>2025-05-03T13:06:39.929+00:00</time>
      </trkpt>
      <trkpt lat="45.05374" lon="2.48326">
        <ele>800</ele>
        <time>2025-05-03T13:06:44.929+00:00</time>
      </trkpt>
      <trkpt lat="45.05373" lon="2.48327">
        <ele>800</ele>
        <time>2025-05-03T13:06:50.929+00:00</time>
      </trkpt>
      <trkpt lat="45.05374" lon="2.48336">
        <ele>800</ele>
        <time>2025-05-03T13:06:55.929+00:00</time>
      </trkpt>
      <trkpt lat="45.05372" lon="2.48339">
        <ele>800</ele>
        <time>2025-05-03T13:07:00.929+00:00</time>
      </trkpt>
      <trkpt lat="45.05379" lon="2.48347">
        <ele>807</ele>
        <time>2025-05-03T13:07:22.929+00:00</time>
      </trkpt>
      <trkpt lat="45.05383" lon="2.48342">
        <ele>807</ele>
        <time>2025-05-03T13:07:27.682+00:00</time>
      </trkpt>
      <trkpt lat="45.05387" lon="2.48338">
        <ele>807</ele>
        <time>2025-05-03T13:07:31.929+00:00</time>
      </trkpt>
      <trkpt lat="45.05391" lon="2.48332">
        <ele>807</ele>
        <time>2025-05-03T13:07:36.757+00:00</time>
      </trkpt>
      <trkpt lat="45.05396" lon="2.4833">
        <ele>807</ele>
        <time>2025-05-03T13:07:40.929+00:00</time>
      </trkpt>
      <trkpt lat="45.054" lon="2.4833">
        <ele>807</ele>
        <time>2025-05-03T13:07:44.929+00:00</time>
      </trkpt>
      <trkpt lat="45.054" lon="2.4833">
        <ele>807</ele>
        <time>2025-05-03T13:07:49.882+00:00</time>
      </trkpt>
      <trkpt lat="45.05405" lon="2.48327">
        <ele>816</ele>
        <time>2025-05-03T13:07:54.122+00:00</time>
      </trkpt>
      <trkpt lat="45.05409" lon="2.48322">
        <ele>816</ele>
        <time>2025-05-03T13:07:58.541+00:00</time>
      </trkpt>
      <trkpt lat="45.05412" lon="2.48319">
        <ele>813</ele>
        <time>2025-05-03T13:08:11.929+00:00</time>
      </trkpt>
      <trkpt lat="45.05413" lon="2.48313">
        <ele>813</ele>
        <time>2025-05-03T13:08:16.817+00:00</time>
      </trkpt>
      <trkpt lat="45.05418" lon="2.48301">
        <ele>813</ele>
        <time>2025-05-03T13:08:21.335+00:00</time>
      </trkpt>
      <trkpt lat="45.05419" lon="2.48291">
        <ele>813</ele>
        <time>2025-05-03T13:08:25.749+00:00</time>
      </trkpt>
      <trkpt lat="45.05418" lon="2.48289">
        <ele>813</ele>
        <time>2025-05-03T13:08:29.929+00:00</time>
      </trkpt>
      <trkpt lat="45.05419" lon="2.48288">
        <ele>813</ele>
        <time>2025-05-03T13:08:33.929+00:00</time>
      </trkpt>
      <trkpt lat="45.05421" lon="2.48281">
        <ele>813</ele>
        <time>2025-05-03T13:08:38.457+00:00</time>
      </trkpt>
      <trkpt lat="45.05424" lon="2.48274">
        <ele>813</ele>
        <time>2025-05-03T13:08:42.792+00:00</time>
      </trkpt>
      <trkpt lat="45.05428" lon="2.48266">
        <ele>813</ele>
        <time>2025-05-03T13:08:47.479+00:00</time>
      </trkpt>
      <trkpt lat="45.05431" lon="2.4826">
        <ele>819</ele>
        <time>2025-05-03T13:08:51.574+00:00</time>
      </trkpt>
      <trkpt lat="45.05432" lon="2.48253">
        <ele>819</ele>
        <time>2025-05-03T13:08:56.054+00:00</time>
      </trkpt>
      <trkpt lat="45.05432" lon="2.48245">
        <ele>819</ele>
        <time>2025-05-03T13:09:00.924+00:00</time>
      </trkpt>
      <trkpt lat="45.0543" lon="2.48241">
        <ele>812</ele>
        <time>2025-05-03T13:09:04.929+00:00</time>
      </trkpt>
      <trkpt lat="45.05431" lon="2.4824">
        <ele>819</ele>
        <time>2025-05-03T13:09:08.929+00:00</time>
      </trkpt>
      <trkpt lat="45.05434" lon="2.48236">
        <ele>817</ele>
        <time>2025-05-03T13:09:13.499+00:00</time>
      </trkpt>
      <trkpt lat="45.05436" lon="2.48227">
        <ele>817</ele>
        <time>2025-05-03T13:09:17.695+00:00</time>
      </trkpt>
      <trkpt lat="45.05439" lon="2.48221">
        <ele>817</ele>
        <time>2025-05-03T13:09:22.376+00:00</time>
      </trkpt>
      <trkpt lat="45.05441" lon="2.48215">
        <ele>817</ele>
        <time>2025-05-03T13:09:26.929+00:00</time>
      </trkpt>
      <trkpt lat="45.05442" lon="2.48205">
        <ele>814</ele>
        <time>2025-05-03T13:09:31.802+00:00</time>
      </trkpt>
      <trkpt lat="45.05445" lon="2.48204">
        <ele>814</ele>
        <time>2025-05-03T13:09:35.929+00:00</time>
      </trkpt>
      <trkpt lat="45.05444" lon="2.48195">
        <ele>814</ele>
        <time>2025-05-03T13:09:40.514+00:00</time>
      </trkpt>
      <trkpt lat="45.05444" lon="2.48187">
        <ele>814</ele>
        <time>2025-05-03T13:09:44.936+00:00</time>
      </trkpt>
      <trkpt lat="45.05447" lon="2.48181">
        <ele>814</ele>
        <time>2025-05-03T13:09:49.640+00:00</time>
      </trkpt>
      <trkpt lat="45.05449" lon="2.48175">
        <ele>812</ele>
        <time>2025-05-03T13:09:53.800+00:00</time>
      </trkpt>
      <trkpt lat="45.05448" lon="2.4817">
        <ele>812</ele>
        <time>2025-05-03T13:09:57.929+00:00</time>
      </trkpt>
      <trkpt lat="45.0545" lon="2.48168">
        <ele>812</ele>
        <time>2025-05-03T13:10:02.496+00:00</time>
      </trkpt>
      <trkpt lat="45.05449" lon="2.48161">
        <ele>812</ele>
        <time>2025-05-03T13:10:06.779+00:00</time>
      </trkpt>
      <trkpt lat="45.05447" lon="2.48154">
        <ele>812</ele>
        <time>2025-05-03T13:10:10.915+00:00</time>
      </trkpt>
      <trkpt lat="45.05445" lon="2.48145">
        <ele>810</ele>
        <time>2025-05-03T13:10:15.929+00:00</time>
      </trkpt>
      <trkpt lat="45.05445" lon="2.48145">
        <ele>810</ele>
        <time>2025-05-03T13:10:20.785+00:00</time>
      </trkpt>
      <trkpt lat="45.05445" lon="2.48145">
        <ele>810</ele>
        <time>2025-05-03T13:10:25.355+00:00</time>
      </trkpt>
      <trkpt lat="45.05445" lon="2.48139">
        <ele>810</ele>
        <time>2025-05-03T13:10:29.471+00:00</time>
      </trkpt>
      <trkpt lat="45.05445" lon="2.48136">
        <ele>810</ele>
        <time>2025-05-03T13:10:34.442+00:00</time>
      </trkpt>
      <trkpt lat="45.05444" lon="2.48131">
        <ele>810</ele>
        <time>2025-05-03T13:10:38.928+00:00</time>
      </trkpt>
      <trkpt lat="45.05445" lon="2.48118">
        <ele>808</ele>
        <time>2025-05-03T13:10:43.273+00:00</time>
      </trkpt>
      <trkpt lat="45.05449" lon="2.48113">
        <ele>808</ele>
        <time>2025-05-03T13:10:47.675+00:00</time>
      </trkpt>
      <trkpt lat="45.05454" lon="2.48112">
        <ele>808</ele>
        <time>2025-05-03T13:10:51.929+00:00</time>
      </trkpt>
      <trkpt lat="45.05456" lon="2.48113">
        <ele>808</ele>
        <time>2025-05-03T13:10:56.929+00:00</time>
      </trkpt>
      <trkpt lat="45.05455" lon="2.48106">
        <ele>808</ele>
        <time>2025-05-03T13:11:16.559+00:00</time>
      </trkpt>
      <trkpt lat="45.05449" lon="2.48107">
        <ele>808</ele>
        <time>2025-05-03T13:11:21.354+00:00</time>
      </trkpt>
      <trkpt lat="45.05443" lon="2.48101">
        <ele>808</ele>
        <time>2025-05-03T13:11:25.396+00:00</time>
      </trkpt>
      <trkpt lat="45.0544" lon="2.48094">
        <ele>806</ele>
        <time>2025-05-03T13:11:29.553+00:00</time>
      </trkpt>
      <trkpt lat="45.05441" lon="2.48087">
        <ele>806</ele>
        <time>2025-05-03T13:11:33.928+00:00</time>
      </trkpt>
      <trkpt lat="45.05439" lon="2.48078">
        <ele>806</ele>
        <time>2025-05-03T13:11:47.188+00:00</time>
      </trkpt>
      <trkpt lat="45.05441" lon="2.4807">
        <ele>806</ele>
        <time>2025-05-03T13:11:51.700+00:00</time>
      </trkpt>
      <trkpt lat="45.05446" lon="2.48066">
        <ele>805</ele>
        <time>2025-05-03T13:11:56.221+00:00</time>
      </trkpt>
      <trkpt lat="45.05451" lon="2.48065">
        <ele>805</ele>
        <time>2025-05-03T13:12:00.539+00:00</time>
      </trkpt>
      <trkpt lat="45.05454" lon="2.48066">
        <ele>805</ele>
        <time>2025-05-03T13:12:04.928+00:00</time>
      </trkpt>
      <trkpt lat="45.05456" lon="2.48069">
        <ele>805</ele>
        <time>2025-05-03T13:12:13.928+00:00</time>
      </trkpt>
      <trkpt lat="45.05456" lon="2.48069">
        <ele>805</ele>
        <time>2025-05-03T13:12:17.928+00:00</time>
      </trkpt>
      <trkpt lat="45.05458" lon="2.4807">
        <ele>806</ele>
        <time>2025-05-03T13:12:22.676+00:00</time>
      </trkpt>
      <trkpt lat="45.05461" lon="2.48074">
        <ele>809</ele>
        <time>2025-05-03T13:12:26.928+00:00</time>
      </trkpt>
      <trkpt lat="45.05467" lon="2.48068">
        <ele>806</ele>
        <time>2025-05-03T13:12:31.933+00:00</time>
      </trkpt>
      <trkpt lat="45.05463" lon="2.48068">
        <ele>806</ele>
        <time>2025-05-03T13:13:06.742+00:00</time>
      </trkpt>
      <trkpt lat="45.05462" lon="2.48068">
        <ele>806</ele>
        <time>2025-05-03T13:13:10.817+00:00</time>
      </trkpt>
      <trkpt lat="45.05462" lon="2.48069">
        <ele>806</ele>
        <time>2025-05-03T13:13:14.917+00:00</time>
      </trkpt>
      <trkpt lat="45.0546" lon="2.48069">
        <ele>806</ele>
        <time>2025-05-03T13:13:19.928+00:00</time>
      </trkpt>
      <trkpt lat="45.05458" lon="2.4807">
        <ele>809</ele>
        <time>2025-05-03T13:13:24.703+00:00</time>
      </trkpt>
      <trkpt lat="45.05455" lon="2.48071">
        <ele>806</ele>
        <time>2025-05-03T13:13:38.324+00:00</time>
      </trkpt>
      <trkpt lat="45.05456" lon="2.48068">
        <ele>805</ele>
        <time>2025-05-03T13:13:42.647+00:00</time>
      </trkpt>
      <trkpt lat="45.05451" lon="2.48065">
        <ele>805</ele>
        <time>2025-05-03T13:13:46.762+00:00</time>
      </trkpt>
      <trkpt lat="45.05444" lon="2.48059">
        <ele>805</ele>
        <time>2025-05-03T13:13:51.363+00:00</time>
      </trkpt>
      <trkpt lat="45.05437" lon="2.48061">
        <ele>805</ele>
        <time>2025-05-03T13:13:55.892+00:00</time>
      </trkpt>
      <trkpt lat="45.05435" lon="2.48066">
        <ele>805</ele>
        <time>2025-05-03T13:13:59.928+00:00</time>
      </trkpt>
      <trkpt lat="45.05437" lon="2.48067">
        <ele>805</ele>
        <time>2025-05-03T13:14:08.928+00:00</time>
      </trkpt>
      <trkpt lat="45.05442" lon="2.48066">
        <ele>805</ele>
        <time>2025-05-03T13:14:13.521+00:00</time>
      </trkpt>
      <trkpt lat="45.05445" lon="2.48063">
        <ele>805</ele>
        <time>2025-05-03T13:14:17.705+00:00</time>
      </trkpt>
      <trkpt lat="45.05449" lon="2.48056">
        <ele>805</ele>
        <time>2025-05-03T13:14:22.317+00:00</time>
      </trkpt>
      <trkpt lat="45.05448" lon="2.48054">
        <ele>805</ele>
        <time>2025-05-03T13:14:26.928+00:00</time>
      </trkpt>
      <trkpt lat="45.05448" lon="2.48051">
        <ele>805</ele>
        <time>2025-05-03T13:14:31.257+00:00</time>
      </trkpt>
      <trkpt lat="45.0545" lon="2.48044">
        <ele>805</ele>
        <time>2025-05-03T13:14:35.683+00:00</time>
      </trkpt>
      <trkpt lat="45.05454" lon="2.48038">
        <ele>804</ele>
        <time>2025-05-03T13:14:39.928+00:00</time>
      </trkpt>
      <trkpt lat="45.05453" lon="2.48033">
        <ele>804</ele>
        <time>2025-05-03T13:14:48.928+00:00</time>
      </trkpt>
      <trkpt lat="45.05453" lon="2.48032">
        <ele>804</ele>
        <time>2025-05-03T13:14:53.562+00:00</time>
      </trkpt>
      <trkpt lat="45.05452" lon="2.48028">
        <ele>804</ele>
        <time>2025-05-03T13:14:57.928+00:00</time>
      </trkpt>
      <trkpt lat="45.05451" lon="2.48023">
        <ele>804</ele>
        <time>2025-05-03T13:15:02.741+00:00</time>
      </trkpt>
      <trkpt lat="45.05451" lon="2.48017">
        <ele>804</ele>
        <time>2025-05-03T13:15:06.928+00:00</time>
      </trkpt>
      <trkpt lat="45.05449" lon="2.48012">
        <ele>807</ele>
        <time>2025-05-03T13:15:11.094+00:00</time>
      </trkpt>
      <trkpt lat="45.05446" lon="2.48004">
        <ele>807</ele>
        <time>2025-05-03T13:15:15.340+00:00</time>
      </trkpt>
      <trkpt lat="45.05446" lon="2.47999">
        <ele>807</ele>
        <time>2025-05-03T13:15:19.919+00:00</time>
      </trkpt>
      <trkpt lat="45.05444" lon="2.47994">
        <ele>807</ele>
        <time>2025-05-03T13:15:24.449+00:00</time>
      </trkpt>
      <trkpt lat="45.05444" lon="2.47988">
        <ele>807</ele>
        <time>2025-05-03T13:15:42.927+00:00</time>
      </trkpt>
      <trkpt lat="45.05444" lon="2.47988">
        <ele>807</ele>
        <time>2025-05-03T13:15:47.927+00:00</time>
      </trkpt>
      <trkpt lat="45.05444" lon="2.47982">
        <ele>807</ele>
        <time>2025-05-03T13:15:52.655+00:00</time>
      </trkpt>
      <trkpt lat="45.05443" lon="2.47975">
        <ele>807</ele>
        <time>2025-05-03T13:15:56.927+00:00</time>
      </trkpt>
      <trkpt lat="45.05441" lon="2.47969">
        <ele>807</ele>
        <time>2025-05-03T13:16:00.927+00:00</time>
      </trkpt>
      <trkpt lat="45.05445" lon="2.47972">
        <ele>807</ele>
        <time>2025-05-03T13:16:05.927+00:00</time>
      </trkpt>
      <trkpt lat="45.05445" lon="2.47974">
        <ele>807</ele>
        <time>2025-05-03T13:16:10.396+00:00</time>
      </trkpt>
      <trkpt lat="45.05445" lon="2.47984">
        <ele>807</ele>
        <time>2025-05-03T13:16:14.927+00:00</time>
      </trkpt>
      <trkpt lat="45.05446" lon="2.47985">
        <ele>807</ele>
        <time>2025-05-03T13:16:19.927+00:00</time>
      </trkpt>
      <trkpt lat="45.05446" lon="2.47972">
        <ele>807</ele>
        <time>2025-05-03T13:16:24.927+00:00</time>
      </trkpt>
      <trkpt lat="45.05444" lon="2.47965">
        <ele>807</ele>
        <time>2025-05-03T13:16:28.927+00:00</time>
      </trkpt>
      <trkpt lat="45.05442" lon="2.4796">
        <ele>807</ele>
        <time>2025-05-03T13:16:33.922+00:00</time>
      </trkpt>
      <trkpt lat="45.05442" lon="2.47949">
        <ele>805</ele>
        <time>2025-05-03T13:16:37.927+00:00</time>
      </trkpt>
      <trkpt lat="45.05442" lon="2.47943">
        <ele>805</ele>
        <time>2025-05-03T13:16:42.927+00:00</time>
      </trkpt>
      <trkpt lat="45.0544" lon="2.47943">
        <ele>805</ele>
        <time>2025-05-03T13:16:46.927+00:00</time>
      </trkpt>
      <trkpt lat="45.05438" lon="2.47943">
        <ele>805</ele>
        <time>2025-05-03T13:16:51.557+00:00</time>
      </trkpt>
      <trkpt lat="45.05433" lon="2.47949">
        <ele>805</ele>
        <time>2025-05-03T13:16:55.998+00:00</time>
      </trkpt>
      <trkpt lat="45.05432" lon="2.47954">
        <ele>805</ele>
        <time>2025-05-03T13:17:00.613+00:00</time>
      </trkpt>
      <trkpt lat="45.05431" lon="2.47954">
        <ele>805</ele>
        <time>2025-05-03T13:17:04.927+00:00</time>
      </trkpt>
      <trkpt lat="45.05431" lon="2.47955">
        <ele>805</ele>
        <time>2025-05-03T13:17:09.458+00:00</time>
      </trkpt>
      <trkpt lat="45.05432" lon="2.47961">
        <ele>807</ele>
        <time>2025-05-03T13:17:13.516+00:00</time>
      </trkpt>
      <trkpt lat="45.0543" lon="2.4797">
        <ele>795</ele>
        <time>2025-05-03T13:17:18.927+00:00</time>
      </trkpt>
      <trkpt lat="45.05431" lon="2.47976">
        <ele>807</ele>
        <time>2025-05-03T13:17:22.927+00:00</time>
      </trkpt>
      <trkpt lat="45.0543" lon="2.47979">
        <ele>795</ele>
        <time>2025-05-03T13:17:27.618+00:00</time>
      </trkpt>
      <trkpt lat="45.05429" lon="2.47985">
        <ele>795</ele>
        <time>2025-05-03T13:17:31.683+00:00</time>
      </trkpt>
      <trkpt lat="45.05428" lon="2.47989">
        <ele>795</ele>
        <time>2025-05-03T13:17:35.844+00:00</time>
      </trkpt>
      <trkpt lat="45.05426" lon="2.47985">
        <ele>795</ele>
        <time>2025-05-03T13:17:40.204+00:00</time>
      </trkpt>
      <trkpt lat="45.05426" lon="2.47979">
        <ele>795</ele>
        <time>2025-05-03T13:17:44.489+00:00</time>
      </trkpt>
      <trkpt lat="45.05425" lon="2.47974">
        <ele>795</ele>
        <time>2025-05-03T13:17:48.729+00:00</time>
      </trkpt>
      <trkpt lat="45.05422" lon="2.47971">
        <ele>795</ele>
        <time>2025-05-03T13:17:52.863+00:00</time>
      </trkpt>
      <trkpt lat="45.05418" lon="2.47969">
        <ele>795</ele>
        <time>2025-05-03T13:17:57.151+00:00</time>
      </trkpt>
      <trkpt lat="45.05415" lon="2.47968">
        <ele>795</ele>
        <time>2025-05-03T13:18:01.789+00:00</time>
      </trkpt>
      <trkpt lat="45.05414" lon="2.47962">
        <ele>795</ele>
        <time>2025-05-03T13:18:06.222+00:00</time>
      </trkpt>
      <trkpt lat="45.05414" lon="2.47955">
        <ele>794</ele>
        <time>2025-05-03T13:18:10.401+00:00</time>
      </trkpt>
      <trkpt lat="45.05415" lon="2.47949">
        <ele>794</ele>
        <time>2025-05-03T13:18:14.531+00:00</time>
      </trkpt>
      <trkpt lat="45.05416" lon="2.47941">
        <ele>794</ele>
        <time>2025-05-03T13:18:18.927+00:00</time>
      </trkpt>
      <trkpt lat="45.05418" lon="2.47935">
        <ele>794</ele>
        <time>2025-05-03T13:18:23.027+00:00</time>
      </trkpt>
      <trkpt lat="45.05417" lon="2.47928">
        <ele>792</ele>
        <time>2025-05-03T13:18:27.634+00:00</time>
      </trkpt>
      <trkpt lat="45.05413" lon="2.47924">
        <ele>792</ele>
        <time>2025-05-03T13:18:31.927+00:00</time>
      </trkpt>
      <trkpt lat="45.05411" lon="2.47919">
        <ele>792</ele>
        <time>2025-05-03T13:18:36.464+00:00</time>
      </trkpt>
      <trkpt lat="45.05409" lon="2.47913">
        <ele>792</ele>
        <time>2025-05-03T13:18:40.664+00:00</time>
      </trkpt>
      <trkpt lat="45.05406" lon="2.47909">
        <ele>792</ele>
        <time>2025-05-03T13:18:45.209+00:00</time>
      </trkpt>
      <trkpt lat="45.05401" lon="2.47901">
        <ele>778</ele>
        <time>2025-05-03T13:18:54.227+00:00</time>
      </trkpt>
      <trkpt lat="45.05401" lon="2.47896">
        <ele>778</ele>
        <time>2025-05-03T13:18:58.927+00:00</time>
      </trkpt>
      <trkpt lat="45.054" lon="2.47896">
        <ele>778</ele>
        <time>2025-05-03T13:19:02.927+00:00</time>
      </trkpt>
      <trkpt lat="45.05399" lon="2.47894">
        <ele>778</ele>
        <time>2025-05-03T13:19:07.927+00:00</time>
      </trkpt>
      <trkpt lat="45.054" lon="2.47892">
        <ele>778</ele>
        <time>2025-05-03T13:19:11.927+00:00</time>
      </trkpt>
      <trkpt lat="45.054" lon="2.47892">
        <ele>778</ele>
        <time>2025-05-03T13:19:16.936+00:00</time>
      </trkpt>
      <trkpt lat="45.05405" lon="2.47886">
        <ele>789</ele>
        <time>2025-05-03T13:19:21.921+00:00</time>
      </trkpt>
      <trkpt lat="45.05406" lon="2.4788">
        <ele>789</ele>
        <time>2025-05-03T13:19:25.927+00:00</time>
      </trkpt>
      <trkpt lat="45.05405" lon="2.47875">
        <ele>789</ele>
        <time>2025-05-03T13:19:30.927+00:00</time>
      </trkpt>
      <trkpt lat="45.05408" lon="2.47867">
        <ele>788</ele>
        <time>2025-05-03T13:19:35.927+00:00</time>
      </trkpt>
      <trkpt lat="45.05409" lon="2.4786">
        <ele>788</ele>
        <time>2025-05-03T13:19:40.862+00:00</time>
      </trkpt>
      <trkpt lat="45.0541" lon="2.47854">
        <ele>788</ele>
        <time>2025-05-03T13:19:45.524+00:00</time>
      </trkpt>
      <trkpt lat="45.0541" lon="2.47848">
        <ele>788</ele>
        <time>2025-05-03T13:19:49.546+00:00</time>
      </trkpt>
      <trkpt lat="45.05409" lon="2.47842">
        <ele>786</ele>
        <time>2025-05-03T13:19:53.927+00:00</time>
      </trkpt>
      <trkpt lat="45.05407" lon="2.47836">
        <ele>786</ele>
        <time>2025-05-03T13:19:58.844+00:00</time>
      </trkpt>
      <trkpt lat="45.05407" lon="2.4783">
        <ele>786</ele>
        <time>2025-05-03T13:20:02.927+00:00</time>
      </trkpt>
      <trkpt lat="45.05405" lon="2.47825">
        <ele>786</ele>
        <time>2025-05-03T13:20:07.767+00:00</time>
      </trkpt>
      <trkpt lat="45.05402" lon="2.47818">
        <ele>775</ele>
        <time>2025-05-03T13:21:00.241+00:00</time>
      </trkpt>
      <trkpt lat="45.05403" lon="2.47823">
        <ele>786</ele>
        <time>2025-05-03T13:21:04.731+00:00</time>
      </trkpt>
      <trkpt lat="45.05404" lon="2.47827">
        <ele>786</ele>
        <time>2025-05-03T13:21:08.926+00:00</time>
      </trkpt>
      <trkpt lat="45.05406" lon="2.4783">
        <ele>786</ele>
        <time>2025-05-03T13:21:13.630+00:00</time>
      </trkpt>
      <trkpt lat="45.05407" lon="2.47834">
        <ele>786</ele>
        <time>2025-05-03T13:21:17.936+00:00</time>
      </trkpt>
      <trkpt lat="45.05407" lon="2.47839">
        <ele>786</ele>
        <time>2025-05-03T13:21:22.925+00:00</time>
      </trkpt>
      <trkpt lat="45.05406" lon="2.4784">
        <ele>786</ele>
        <time>2025-05-03T13:21:26.926+00:00</time>
      </trkpt>
      <trkpt lat="45.05408" lon="2.47844">
        <ele>786</ele>
        <time>2025-05-03T13:21:31.167+00:00</time>
      </trkpt>
      <trkpt lat="45.05409" lon="2.4785">
        <ele>788</ele>
        <time>2025-05-03T13:21:35.621+00:00</time>
      </trkpt>
      <trkpt lat="45.05409" lon="2.47855">
        <ele>788</ele>
        <time>2025-05-03T13:21:40.926+00:00</time>
      </trkpt>
      <trkpt lat="45.05408" lon="2.47859">
        <ele>788</ele>
        <time>2025-05-03T13:21:45.403+00:00</time>
      </trkpt>
      <trkpt lat="45.05408" lon="2.47866">
        <ele>788</ele>
        <time>2025-05-03T13:21:49.687+00:00</time>
      </trkpt>
      <trkpt lat="45.05407" lon="2.47872">
        <ele>788</ele>
        <time>2025-05-03T13:21:53.926+00:00</time>
      </trkpt>
      <trkpt lat="45.05406" lon="2.47878">
        <ele>789</ele>
        <time>2025-05-03T13:21:58.343+00:00</time>
      </trkpt>
      <trkpt lat="45.05405" lon="2.47884">
        <ele>789</ele>
        <time>2025-05-03T13:22:02.926+00:00</time>
      </trkpt>
      <trkpt lat="45.05402" lon="2.4789">
        <ele>778</ele>
        <time>2025-05-03T13:22:07.131+00:00</time>
      </trkpt>
      <trkpt lat="45.054" lon="2.47896">
        <ele>778</ele>
        <time>2025-05-03T13:22:11.349+00:00</time>
      </trkpt>
      <trkpt lat="45.054" lon="2.47901">
        <ele>778</ele>
        <time>2025-05-03T13:22:15.536+00:00</time>
      </trkpt>
      <trkpt lat="45.05403" lon="2.47905">
        <ele>792</ele>
        <time>2025-05-03T13:22:20.018+00:00</time>
      </trkpt>
      <trkpt lat="45.05406" lon="2.47909">
        <ele>792</ele>
        <time>2025-05-03T13:22:24.261+00:00</time>
      </trkpt>
      <trkpt lat="45.05409" lon="2.47913">
        <ele>792</ele>
        <time>2025-05-03T13:22:28.685+00:00</time>
      </trkpt>
      <trkpt lat="45.05411" lon="2.4792">
        <ele>792</ele>
        <time>2025-05-03T13:22:33.251+00:00</time>
      </trkpt>
      <trkpt lat="45.05413" lon="2.47924">
        <ele>792</ele>
        <time>2025-05-03T13:22:37.926+00:00</time>
      </trkpt>
      <trkpt lat="45.05415" lon="2.4793">
        <ele>792</ele>
        <time>2025-05-03T13:22:42.674+00:00</time>
      </trkpt>
      <trkpt lat="45.05416" lon="2.47935">
        <ele>794</ele>
        <time>2025-05-03T13:22:46.886+00:00</time>
      </trkpt>
      <trkpt lat="45.05416" lon="2.4794">
        <ele>794</ele>
        <time>2025-05-03T13:22:50.903+00:00</time>
      </trkpt>
      <trkpt lat="45.05414" lon="2.47943">
        <ele>794</ele>
        <time>2025-05-03T13:22:55.286+00:00</time>
      </trkpt>
      <trkpt lat="45.05413" lon="2.4795">
        <ele>794</ele>
        <time>2025-05-03T13:22:59.870+00:00</time>
      </trkpt>
      <trkpt lat="45.05413" lon="2.47955">
        <ele>794</ele>
        <time>2025-05-03T13:23:03.926+00:00</time>
      </trkpt>
      <trkpt lat="45.05413" lon="2.47962">
        <ele>795</ele>
        <time>2025-05-03T13:23:08.521+00:00</time>
      </trkpt>
      <trkpt lat="45.05415" lon="2.47967">
        <ele>795</ele>
        <time>2025-05-03T13:23:12.926+00:00</time>
      </trkpt>
      <trkpt lat="45.05418" lon="2.47971">
        <ele>795</ele>
        <time>2025-05-03T13:23:17.465+00:00</time>
      </trkpt>
      <trkpt lat="45.05423" lon="2.47974">
        <ele>795</ele>
        <time>2025-05-03T13:23:21.764+00:00</time>
      </trkpt>
      <trkpt lat="45.05425" lon="2.47979">
        <ele>795</ele>
        <time>2025-05-03T13:23:25.926+00:00</time>
      </trkpt>
      <trkpt lat="45.05429" lon="2.47975">
        <ele>795</ele>
        <time>2025-05-03T13:23:51.926+00:00</time>
      </trkpt>
      <trkpt lat="45.05429" lon="2.47975">
        <ele>795</ele>
        <time>2025-05-03T13:23:57.926+00:00</time>
      </trkpt>
      <trkpt lat="45.0543" lon="2.4797">
        <ele>795</ele>
        <time>2025-05-03T13:24:02.748+00:00</time>
      </trkpt>
      <trkpt lat="45.05432" lon="2.47964">
        <ele>807</ele>
        <time>2025-05-03T13:24:06.845+00:00</time>
      </trkpt>
      <trkpt lat="45.05432" lon="2.47959">
        <ele>807</ele>
        <time>2025-05-03T13:24:10.926+00:00</time>
      </trkpt>
      <trkpt lat="45.05431" lon="2.47957">
        <ele>805</ele>
        <time>2025-05-03T13:24:57.925+00:00</time>
      </trkpt>
      <trkpt lat="45.05431" lon="2.47956">
        <ele>805</ele>
        <time>2025-05-03T13:25:04.925+00:00</time>
      </trkpt>
      <trkpt lat="45.05431" lon="2.47955">
        <ele>805</ele>
        <time>2025-05-03T13:25:10.925+00:00</time>
      </trkpt>
      <trkpt lat="45.05431" lon="2.47951">
        <ele>805</ele>
        <time>2025-05-03T13:25:15.005+00:00</time>
      </trkpt>
      <trkpt lat="45.05434" lon="2.47945">
        <ele>805</ele>
        <time>2025-05-03T13:25:19.343+00:00</time>
      </trkpt>
      <trkpt lat="45.05438" lon="2.47947">
        <ele>805</ele>
        <time>2025-05-03T13:25:23.427+00:00</time>
      </trkpt>
      <trkpt lat="45.05437" lon="2.47955">
        <ele>805</ele>
        <time>2025-05-03T13:25:27.564+00:00</time>
      </trkpt>
      <trkpt lat="45.05441" lon="2.47959">
        <ele>807</ele>
        <time>2025-05-03T13:25:32.160+00:00</time>
      </trkpt>
      <trkpt lat="45.05443" lon="2.47958">
        <ele>805</ele>
        <time>2025-05-03T13:25:36.925+00:00</time>
      </trkpt>
      <trkpt lat="45.05442" lon="2.47969">
        <ele>807</ele>
        <time>2025-05-03T13:25:41.382+00:00</time>
      </trkpt>
      <trkpt lat="45.05442" lon="2.47978">
        <ele>807</ele>
        <time>2025-05-03T13:25:45.701+00:00</time>
      </trkpt>
      <trkpt lat="45.05441" lon="2.47985">
        <ele>807</ele>
        <time>2025-05-03T13:25:49.925+00:00</time>
      </trkpt>
      <trkpt lat="45.05441" lon="2.47991">
        <ele>807</ele>
        <time>2025-05-03T13:25:54.202+00:00</time>
      </trkpt>
      <trkpt lat="45.05444" lon="2.48003">
        <ele>807</ele>
        <time>2025-05-03T13:26:02.925+00:00</time>
      </trkpt>
      <trkpt lat="45.05444" lon="2.48006">
        <ele>807</ele>
        <time>2025-05-03T13:26:05.925+00:00</time>
      </trkpt>
      <trkpt lat="45.05445" lon="2.48008">
        <ele>807</ele>
        <time>2025-05-03T13:26:14.925+00:00</time>
      </trkpt>
      <trkpt lat="45.05446" lon="2.48009">
        <ele>807</ele>
        <time>2025-05-03T13:26:18.925+00:00</time>
      </trkpt>
      <trkpt lat="45.05447" lon="2.48012">
        <ele>807</ele>
        <time>2025-05-03T13:26:23.925+00:00</time>
      </trkpt>
      <trkpt lat="45.05447" lon="2.48013">
        <ele>807</ele>
        <time>2025-05-03T13:26:28.925+00:00</time>
      </trkpt>
      <trkpt lat="45.05446" lon="2.48021">
        <ele>804</ele>
        <time>2025-05-03T13:26:33.362+00:00</time>
      </trkpt>
      <trkpt lat="45.05447" lon="2.48021">
        <ele>804</ele>
        <time>2025-05-03T13:26:37.826+00:00</time>
      </trkpt>
      <trkpt lat="45.05448" lon="2.4803">
        <ele>804</ele>
        <time>2025-05-03T13:26:42.431+00:00</time>
      </trkpt>
      <trkpt lat="45.05448" lon="2.48037">
        <ele>804</ele>
        <time>2025-05-03T13:26:46.925+00:00</time>
      </trkpt>
      <trkpt lat="45.05447" lon="2.48044">
        <ele>805</ele>
        <time>2025-05-03T13:26:51.250+00:00</time>
      </trkpt>
      <trkpt lat="45.05447" lon="2.4805">
        <ele>805</ele>
        <time>2025-05-03T13:26:55.443+00:00</time>
      </trkpt>
      <trkpt lat="45.05446" lon="2.48056">
        <ele>805</ele>
        <time>2025-05-03T13:26:59.672+00:00</time>
      </trkpt>
      <trkpt lat="45.05444" lon="2.48062">
        <ele>805</ele>
        <time>2025-05-03T13:27:03.925+00:00</time>
      </trkpt>
      <trkpt lat="45.05442" lon="2.48069">
        <ele>805</ele>
        <time>2025-05-03T13:27:08.925+00:00</time>
      </trkpt>
      <trkpt lat="45.05442" lon="2.48075">
        <ele>806</ele>
        <time>2025-05-03T13:27:13.485+00:00</time>
      </trkpt>
      <trkpt lat="45.05442" lon="2.48081">
        <ele>806</ele>
        <time>2025-05-03T13:27:17.925+00:00</time>
      </trkpt>
      <trkpt lat="45.05441" lon="2.48088">
        <ele>806</ele>
        <time>2025-05-03T13:27:22.787+00:00</time>
      </trkpt>
      <trkpt lat="45.05441" lon="2.48093">
        <ele>806</ele>
        <time>2025-05-03T13:27:26.823+00:00</time>
      </trkpt>
      <trkpt lat="45.0544" lon="2.48099">
        <ele>808</ele>
        <time>2025-05-03T13:27:31.445+00:00</time>
      </trkpt>
      <trkpt lat="45.05439" lon="2.48103">
        <ele>808</ele>
        <time>2025-05-03T13:27:35.784+00:00</time>
      </trkpt>
      <trkpt lat="45.05441" lon="2.48108">
        <ele>808</ele>
        <time>2025-05-03T13:27:40.446+00:00</time>
      </trkpt>
      <trkpt lat="45.05444" lon="2.48113">
        <ele>808</ele>
        <time>2025-05-03T13:27:44.925+00:00</time>
      </trkpt>
      <trkpt lat="45.05444" lon="2.48119">
        <ele>808</ele>
        <time>2025-05-03T13:27:49.168+00:00</time>
      </trkpt>
      <trkpt lat="45.05447" lon="2.48124">
        <ele>808</ele>
        <time>2025-05-03T13:27:53.606+00:00</time>
      </trkpt>
      <trkpt lat="45.0545" lon="2.4813">
        <ele>810</ele>
        <time>2025-05-03T13:27:57.895+00:00</time>
      </trkpt>
      <trkpt lat="45.05452" lon="2.48136">
        <ele>810</ele>
        <time>2025-05-03T13:28:01.925+00:00</time>
      </trkpt>
      <trkpt lat="45.05454" lon="2.48143">
        <ele>810</ele>
        <time>2025-05-03T13:28:06.081+00:00</time>
      </trkpt>
      <trkpt lat="45.05458" lon="2.48147">
        <ele>810</ele>
        <time>2025-05-03T13:28:10.341+00:00</time>
      </trkpt>
      <trkpt lat="45.05457" lon="2.48143">
        <ele>810</ele>
        <time>2025-05-03T13:29:59.924+00:00</time>
      </trkpt>
      <trkpt lat="45.05455" lon="2.48141">
        <ele>810</ele>
        <time>2025-05-03T13:30:04.460+00:00</time>
      </trkpt>
      <trkpt lat="45.05452" lon="2.48139">
        <ele>810</ele>
        <time>2025-05-03T13:30:08.530+00:00</time>
      </trkpt>
      <trkpt lat="45.05451" lon="2.48135">
        <ele>810</ele>
        <time>2025-05-03T13:30:12.624+00:00</time>
      </trkpt>
      <trkpt lat="45.05449" lon="2.48131">
        <ele>810</ele>
        <time>2025-05-03T13:30:16.924+00:00</time>
      </trkpt>
      <trkpt lat="45.05443" lon="2.48151">
        <ele>810</ele>
        <time>2025-05-03T13:30:56.864+00:00</time>
      </trkpt>
      <trkpt lat="45.0544" lon="2.48151">
        <ele>810</ele>
        <time>2025-05-03T13:31:00.924+00:00</time>
      </trkpt>
      <trkpt lat="45.05441" lon="2.48153">
        <ele>810</ele>
        <time>2025-05-03T13:31:05.459+00:00</time>
      </trkpt>
      <trkpt lat="45.05439" lon="2.48159">
        <ele>812</ele>
        <time>2025-05-03T13:31:09.702+00:00</time>
      </trkpt>
      <trkpt lat="45.0544" lon="2.48167">
        <ele>812</ele>
        <time>2025-05-03T13:31:14.285+00:00</time>
      </trkpt>
      <trkpt lat="45.05443" lon="2.48175">
        <ele>812</ele>
        <time>2025-05-03T13:31:59.924+00:00</time>
      </trkpt>
      <trkpt lat="45.05443" lon="2.48177">
        <ele>812</ele>
        <time>2025-05-03T13:32:04.924+00:00</time>
      </trkpt>
      <trkpt lat="45.05443" lon="2.48177">
        <ele>812</ele>
        <time>2025-05-03T13:32:09.603+00:00</time>
      </trkpt>
      <trkpt lat="45.05442" lon="2.48181">
        <ele>812</ele>
        <time>2025-05-03T13:32:13.760+00:00</time>
      </trkpt>
      <trkpt lat="45.05441" lon="2.48186">
        <ele>814</ele>
        <time>2025-05-03T13:32:17.925+00:00</time>
      </trkpt>
      <trkpt lat="45.05439" lon="2.48185">
        <ele>814</ele>
        <time>2025-05-03T13:32:56.924+00:00</time>
      </trkpt>
      <trkpt lat="45.05445" lon="2.48185">
        <ele>814</ele>
        <time>2025-05-03T13:33:00.920+00:00</time>
      </trkpt>
      <trkpt lat="45.0545" lon="2.48181">
        <ele>814</ele>
        <time>2025-05-03T13:33:05.109+00:00</time>
      </trkpt>
      <trkpt lat="45.05457" lon="2.48181">
        <ele>814</ele>
        <time>2025-05-03T13:33:09.455+00:00</time>
      </trkpt>
      <trkpt lat="45.05462" lon="2.48183">
        <ele>820</ele>
        <time>2025-05-03T13:33:13.836+00:00</time>
      </trkpt>
      <trkpt lat="45.05471" lon="2.48183">
        <ele>820</ele>
        <time>2025-05-03T13:33:30.934+00:00</time>
      </trkpt>
      <trkpt lat="45.05473" lon="2.48185">
        <ele>820</ele>
        <time>2025-05-03T13:33:35.924+00:00</time>
      </trkpt>
      <trkpt lat="45.05475" lon="2.48185">
        <ele>820</ele>
        <time>2025-05-03T13:33:39.924+00:00</time>
      </trkpt>
      <trkpt lat="45.05476" lon="2.48185">
        <ele>820</ele>
        <time>2025-05-03T13:33:44.924+00:00</time>
      </trkpt>
      <trkpt lat="45.05477" lon="2.48185">
        <ele>820</ele>
        <time>2025-05-03T13:33:49.450+00:00</time>
      </trkpt>
      <trkpt lat="45.05483" lon="2.48186">
        <ele>820</ele>
        <time>2025-05-03T13:33:53.772+00:00</time>
      </trkpt>
      <trkpt lat="45.05488" lon="2.48189">
        <ele>825</ele>
        <time>2025-05-03T13:33:57.924+00:00</time>
      </trkpt>
      <trkpt lat="45.05491" lon="2.48193">
        <ele>825</ele>
        <time>2025-05-03T13:34:02.576+00:00</time>
      </trkpt>
      <trkpt lat="45.05492" lon="2.48192">
        <ele>825</ele>
        <time>2025-05-03T13:34:06.923+00:00</time>
      </trkpt>
      <trkpt lat="45.05496" lon="2.48192">
        <ele>825</ele>
        <time>2025-05-03T13:34:11.613+00:00</time>
      </trkpt>
      <trkpt lat="45.055" lon="2.48188">
        <ele>825</ele>
        <time>2025-05-03T13:34:15.923+00:00</time>
      </trkpt>
      <trkpt lat="45.055" lon="2.48185">
        <ele>825</ele>
        <time>2025-05-03T13:34:20.923+00:00</time>
      </trkpt>
      <trkpt lat="45.05499" lon="2.48183">
        <ele>825</ele>
        <time>2025-05-03T13:34:25.533+00:00</time>
      </trkpt>
      <trkpt lat="45.05499" lon="2.48174">
        <ele>824</ele>
        <time>2025-05-03T13:34:29.923+00:00</time>
      </trkpt>
      <trkpt lat="45.05495" lon="2.48169">
        <ele>824</ele>
        <time>2025-05-03T13:34:48.497+00:00</time>
      </trkpt>
      <trkpt lat="45.05495" lon="2.48165">
        <ele>824</ele>
        <time>2025-05-03T13:34:52.735+00:00</time>
      </trkpt>
      <trkpt lat="45.05493" lon="2.48161">
        <ele>824</ele>
        <time>2025-05-03T13:34:56.925+00:00</time>
      </trkpt>
      <trkpt lat="45.05493" lon="2.48159">
        <ele>824</ele>
        <time>2025-05-03T13:35:01.315+00:00</time>
      </trkpt>
      <trkpt lat="45.05491" lon="2.48157">
        <ele>824</ele>
        <time>2025-05-03T13:35:05.650+00:00</time>
      </trkpt>
      <trkpt lat="45.05492" lon="2.4816">
        <ele>824</ele>
        <time>2025-05-03T13:35:14.641+00:00</time>
      </trkpt>
      <trkpt lat="45.05493" lon="2.4816">
        <ele>824</ele>
        <time>2025-05-03T13:35:18.896+00:00</time>
      </trkpt>
      <trkpt lat="45.05493" lon="2.4815">
        <ele>823</ele>
        <time>2025-05-03T13:35:23.617+00:00</time>
      </trkpt>
      <trkpt lat="45.05491" lon="2.48146">
        <ele>823</ele>
        <time>2025-05-03T13:35:27.593+00:00</time>
      </trkpt>
      <trkpt lat="45.05488" lon="2.48146">
        <ele>823</ele>
        <time>2025-05-03T13:35:31.923+00:00</time>
      </trkpt>
      <trkpt lat="45.05485" lon="2.48136">
        <ele>815</ele>
        <time>2025-05-03T13:35:36.928+00:00</time>
      </trkpt>
      <trkpt lat="45.05485" lon="2.48127">
        <ele>815</ele>
        <time>2025-05-03T13:35:41.651+00:00</time>
      </trkpt>
      <trkpt lat="45.05491" lon="2.48117">
        <ele>820</ele>
        <time>2025-05-03T13:35:46.149+00:00</time>
      </trkpt>
      <trkpt lat="45.05491" lon="2.48116">
        <ele>820</ele>
        <time>2025-05-03T13:35:50.912+00:00</time>
      </trkpt>
      <trkpt lat="45.05492" lon="2.48116">
        <ele>820</ele>
        <time>2025-05-03T13:35:54.923+00:00</time>
      </trkpt>
      <trkpt lat="45.05492" lon="2.48118">
        <ele>820</ele>
        <time>2025-05-03T13:36:00.254+00:00</time>
      </trkpt>
      <trkpt lat="45.05495" lon="2.48123">
        <ele>820</ele>
        <time>2025-05-03T13:36:04.636+00:00</time>
      </trkpt>
      <trkpt lat="45.05492" lon="2.48134">
        <ele>823</ele>
        <time>2025-05-03T13:36:09.049+00:00</time>
      </trkpt>
      <trkpt lat="45.05485" lon="2.48138">
        <ele>815</ele>
        <time>2025-05-03T13:36:13.769+00:00</time>
      </trkpt>
      <trkpt lat="45.05479" lon="2.48137">
        <ele>815</ele>
        <time>2025-05-03T13:36:17.791+00:00</time>
      </trkpt>
      <trkpt lat="45.05474" lon="2.48134">
        <ele>815</ele>
        <time>2025-05-03T13:36:21.923+00:00</time>
      </trkpt>
      <trkpt lat="45.0547" lon="2.48133">
        <ele>815</ele>
        <time>2025-05-03T13:36:26.695+00:00</time>
      </trkpt>
      <trkpt lat="45.05472" lon="2.48132">
        <ele>815</ele>
        <time>2025-05-03T13:36:48.755+00:00</time>
      </trkpt>
      <trkpt lat="45.05465" lon="2.48132">
        <ele>815</ele>
        <time>2025-05-03T13:36:52.923+00:00</time>
      </trkpt>
      <trkpt lat="45.05459" lon="2.48139">
        <ele>815</ele>
        <time>2025-05-03T13:36:56.923+00:00</time>
      </trkpt>
      <trkpt lat="45.05453" lon="2.48139">
        <ele>810</ele>
        <time>2025-05-03T13:37:01.550+00:00</time>
      </trkpt>
      <trkpt lat="45.05449" lon="2.48135">
        <ele>810</ele>
        <time>2025-05-03T13:37:05.822+00:00</time>
      </trkpt>
      <trkpt lat="45.05446" lon="2.4813">
        <ele>810</ele>
        <time>2025-05-03T13:37:09.923+00:00</time>
      </trkpt>
      <trkpt lat="45.05441" lon="2.48134">
        <ele>810</ele>
        <time>2025-05-03T13:37:14.270+00:00</time>
      </trkpt>
      <trkpt lat="45.05445" lon="2.48143">
        <ele>810</ele>
        <time>2025-05-03T13:37:18.571+00:00</time>
      </trkpt>
      <trkpt lat="45.05446" lon="2.48151">
        <ele>810</ele>
        <time>2025-05-03T13:37:22.874+00:00</time>
      </trkpt>
      <trkpt lat="45.05447" lon="2.48159">
        <ele>812</ele>
        <time>2025-05-03T13:37:27.315+00:00</time>
      </trkpt>
      <trkpt lat="45.05447" lon="2.48168">
        <ele>812</ele>
        <time>2025-05-03T13:37:31.747+00:00</time>
      </trkpt>
      <trkpt lat="45.05446" lon="2.48175">
        <ele>812</ele>
        <time>2025-05-03T13:37:36.190+00:00</time>
      </trkpt>
      <trkpt lat="45.05444" lon="2.48182">
        <ele>814</ele>
        <time>2025-05-03T13:37:40.795+00:00</time>
      </trkpt>
      <trkpt lat="45.0544" lon="2.48186">
        <ele>814</ele>
        <time>2025-05-03T13:37:44.853+00:00</time>
      </trkpt>
      <trkpt lat="45.05437" lon="2.4819">
        <ele>814</ele>
        <time>2025-05-03T13:37:48.922+00:00</time>
      </trkpt>
      <trkpt lat="45.05435" lon="2.48195">
        <ele>814</ele>
        <time>2025-05-03T13:37:53.436+00:00</time>
      </trkpt>
      <trkpt lat="45.05433" lon="2.48196">
        <ele>814</ele>
        <time>2025-05-03T13:37:57.676+00:00</time>
      </trkpt>
      <trkpt lat="45.05436" lon="2.48209">
        <ele>817</ele>
        <time>2025-05-03T13:38:28.585+00:00</time>
      </trkpt>
      <trkpt lat="45.05437" lon="2.4821">
        <ele>817</ele>
        <time>2025-05-03T13:38:32.876+00:00</time>
      </trkpt>
      <trkpt lat="45.05437" lon="2.48214">
        <ele>817</ele>
        <time>2025-05-03T13:38:36.935+00:00</time>
      </trkpt>
      <trkpt lat="45.05435" lon="2.4822">
        <ele>817</ele>
        <time>2025-05-03T13:38:41.253+00:00</time>
      </trkpt>
      <trkpt lat="45.05435" lon="2.48225">
        <ele>817</ele>
        <time>2025-05-03T13:38:45.394+00:00</time>
      </trkpt>
      <trkpt lat="45.05435" lon="2.48229">
        <ele>817</ele>
        <time>2025-05-03T13:39:05.922+00:00</time>
      </trkpt>
      <trkpt lat="45.05433" lon="2.48235">
        <ele>817</ele>
        <time>2025-05-03T13:39:10.120+00:00</time>
      </trkpt>
      <trkpt lat="45.05431" lon="2.4824">
        <ele>819</ele>
        <time>2025-05-03T13:39:14.253+00:00</time>
      </trkpt>
      <trkpt lat="45.0543" lon="2.48246">
        <ele>812</ele>
        <time>2025-05-03T13:39:19.372+00:00</time>
      </trkpt>
      <trkpt lat="45.05428" lon="2.48248">
        <ele>812</ele>
        <time>2025-05-03T13:39:23.657+00:00</time>
      </trkpt>
      <trkpt lat="45.05427" lon="2.48249">
        <ele>812</ele>
        <time>2025-05-03T13:39:27.912+00:00</time>
      </trkpt>
      <trkpt lat="45.05427" lon="2.48254">
        <ele>812</ele>
        <time>2025-05-03T13:39:32.922+00:00</time>
      </trkpt>
      <trkpt lat="45.05428" lon="2.48257">
        <ele>812</ele>
        <time>2025-05-03T13:39:37.316+00:00</time>
      </trkpt>
      <trkpt lat="45.05429" lon="2.48264">
        <ele>812</ele>
        <time>2025-05-03T13:39:41.755+00:00</time>
      </trkpt>
      <trkpt lat="45.05428" lon="2.4827">
        <ele>813</ele>
        <time>2025-05-03T13:39:46.922+00:00</time>
      </trkpt>
      <trkpt lat="45.05424" lon="2.4827">
        <ele>813</ele>
        <time>2025-05-03T13:39:51.513+00:00</time>
      </trkpt>
      <trkpt lat="45.05421" lon="2.48277">
        <ele>813</ele>
        <time>2025-05-03T13:39:55.939+00:00</time>
      </trkpt>
      <trkpt lat="45.05421" lon="2.48282">
        <ele>813</ele>
        <time>2025-05-03T13:40:00.532+00:00</time>
      </trkpt>
      <trkpt lat="45.0542" lon="2.48287">
        <ele>813</ele>
        <time>2025-05-03T13:40:05.188+00:00</time>
      </trkpt>
      <trkpt lat="45.05419" lon="2.48289">
        <ele>813</ele>
        <time>2025-05-03T13:40:09.569+00:00</time>
      </trkpt>
      <trkpt lat="45.05416" lon="2.48293">
        <ele>813</ele>
        <time>2025-05-03T13:40:13.670+00:00</time>
      </trkpt>
      <trkpt lat="45.05412" lon="2.48295">
        <ele>813</ele>
        <time>2025-05-03T13:40:18.922+00:00</time>
      </trkpt>
      <trkpt lat="45.05416" lon="2.48302">
        <ele>813</ele>
        <time>2025-05-03T13:40:23.854+00:00</time>
      </trkpt>
      <trkpt lat="45.05412" lon="2.48307">
        <ele>813</ele>
        <time>2025-05-03T13:40:28.174+00:00</time>
      </trkpt>
      <trkpt lat="45.05409" lon="2.4831">
        <ele>813</ele>
        <time>2025-05-03T13:40:32.648+00:00</time>
      </trkpt>
      <trkpt lat="45.05406" lon="2.48312">
        <ele>813</ele>
        <time>2025-05-03T13:40:36.839+00:00</time>
      </trkpt>
      <trkpt lat="45.05405" lon="2.48318">
        <ele>813</ele>
        <time>2025-05-03T13:40:41.234+00:00</time>
      </trkpt>
      <trkpt lat="45.05404" lon="2.48324">
        <ele>816</ele>
        <time>2025-05-03T13:40:45.533+00:00</time>
      </trkpt>
      <trkpt lat="45.05402" lon="2.48329">
        <ele>807</ele>
        <time>2025-05-03T13:40:49.886+00:00</time>
      </trkpt>
      <trkpt lat="45.05399" lon="2.48332">
        <ele>807</ele>
        <time>2025-05-03T13:40:54.435+00:00</time>
      </trkpt>
      <trkpt lat="45.05397" lon="2.48336">
        <ele>807</ele>
        <time>2025-05-03T13:40:58.922+00:00</time>
      </trkpt>
      <trkpt lat="45.05395" lon="2.48342">
        <ele>807</ele>
        <time>2025-05-03T13:41:03.406+00:00</time>
      </trkpt>
      <trkpt lat="45.05392" lon="2.48347">
        <ele>810</ele>
        <time>2025-05-03T13:41:07.922+00:00</time>
      </trkpt>
      <trkpt lat="45.05388" lon="2.48348">
        <ele>810</ele>
        <time>2025-05-03T13:41:12.566+00:00</time>
      </trkpt>
      <trkpt lat="45.05382" lon="2.48348">
        <ele>810</ele>
        <time>2025-05-03T13:41:30.168+00:00</time>
      </trkpt>
      <trkpt lat="45.0538" lon="2.48351">
        <ele>810</ele>
        <time>2025-05-03T13:41:34.829+00:00</time>
      </trkpt>
      <trkpt lat="45.05377" lon="2.48358">
        <ele>810</ele>
        <time>2025-05-03T13:41:38.927+00:00</time>
      </trkpt>
      <trkpt lat="45.05373" lon="2.48363">
        <ele>804</ele>
        <time>2025-05-03T13:41:43.646+00:00</time>
      </trkpt>
      <trkpt lat="45.0537" lon="2.48368">
        <ele>804</ele>
        <time>2025-05-03T13:41:47.872+00:00</time>
      </trkpt>
      <trkpt lat="45.05365" lon="2.48376">
        <ele>805</ele>
        <time>2025-05-03T13:42:08.188+00:00</time>
      </trkpt>
      <trkpt lat="45.05364" lon="2.48381">
        <ele>805</ele>
        <time>2025-05-03T13:42:12.574+00:00</time>
      </trkpt>
      <trkpt lat="45.05362" lon="2.48388">
        <ele>805</ele>
        <time>2025-05-03T13:42:16.922+00:00</time>
      </trkpt>
      <trkpt lat="45.05359" lon="2.48397">
        <ele>805</ele>
        <time>2025-05-03T13:42:21.598+00:00</time>
      </trkpt>
      <trkpt lat="45.05355" lon="2.48403">
        <ele>805</ele>
        <time>2025-05-03T13:42:25.935+00:00</time>
      </trkpt>
      <trkpt lat="45.0535" lon="2.48407">
        <ele>807</ele>
        <time>2025-05-03T13:42:29.922+00:00</time>
      </trkpt>
      <trkpt lat="45.05345" lon="2.4841">
        <ele>803</ele>
        <time>2025-05-03T13:42:34.922+00:00</time>
      </trkpt>
      <trkpt lat="45.05349" lon="2.48414">
        <ele>807</ele>
        <time>2025-05-03T13:42:39.922+00:00</time>
      </trkpt>
      <trkpt lat="45.05348" lon="2.48415">
        <ele>807</ele>
        <time>2025-05-03T13:42:44.230+00:00</time>
      </trkpt>
      <trkpt lat="45.05342" lon="2.48417">
        <ele>803</ele>
        <time>2025-05-03T13:42:48.391+00:00</time>
      </trkpt>
      <trkpt lat="45.05336" lon="2.48419">
        <ele>803</ele>
        <time>2025-05-03T13:42:52.695+00:00</time>
      </trkpt>
      <trkpt lat="45.05333" lon="2.48426">
        <ele>803</ele>
        <time>2025-05-03T13:42:56.751+00:00</time>
      </trkpt>
      <trkpt lat="45.05331" lon="2.48436">
        <ele>804</ele>
        <time>2025-05-03T13:43:00.922+00:00</time>
      </trkpt>
      <trkpt lat="45.05335" lon="2.48444">
        <ele>804</ele>
        <time>2025-05-03T13:43:05.401+00:00</time>
      </trkpt>
      <trkpt lat="45.05336" lon="2.4845">
        <ele>804</ele>
        <time>2025-05-03T13:43:09.495+00:00</time>
      </trkpt>
      <trkpt lat="45.05336" lon="2.48456">
        <ele>804</ele>
        <time>2025-05-03T13:43:13.942+00:00</time>
      </trkpt>
      <trkpt lat="45.05335" lon="2.48464">
        <ele>806</ele>
        <time>2025-05-03T13:43:18.533+00:00</time>
      </trkpt>
      <trkpt lat="45.05333" lon="2.4847">
        <ele>806</ele>
        <time>2025-05-03T13:43:22.648+00:00</time>
      </trkpt>
      <trkpt lat="45.05334" lon="2.48478">
        <ele>806</ele>
        <time>2025-05-03T13:43:27.751+00:00</time>
      </trkpt>
      <trkpt lat="45.05334" lon="2.48485">
        <ele>806</ele>
        <time>2025-05-03T13:43:31.921+00:00</time>
      </trkpt>
      <trkpt lat="45.05334" lon="2.4849">
        <ele>807</ele>
        <time>2025-05-03T13:43:36.672+00:00</time>
      </trkpt>
      <trkpt lat="45.05334" lon="2.48495">
        <ele>807</ele>
        <time>2025-05-03T13:43:41.287+00:00</time>
      </trkpt>
      <trkpt lat="45.05335" lon="2.48501">
        <ele>807</ele>
        <time>2025-05-03T13:43:45.694+00:00</time>
      </trkpt>
      <trkpt lat="45.05336" lon="2.48508">
        <ele>807</ele>
        <time>2025-05-03T13:43:50.741+00:00</time>
      </trkpt>
      <trkpt lat="45.05337" lon="2.48513">
        <ele>807</ele>
        <time>2025-05-03T13:43:54.833+00:00</time>
      </trkpt>
      <trkpt lat="45.05336" lon="2.48519">
        <ele>808</ele>
        <time>2025-05-03T13:43:59.537+00:00</time>
      </trkpt>
      <trkpt lat="45.05338" lon="2.48523">
        <ele>808</ele>
        <time>2025-05-03T13:44:26.359+00:00</time>
      </trkpt>
      <trkpt lat="45.05338" lon="2.48523">
        <ele>808</ele>
        <time>2025-05-03T13:44:32.159+00:00</time>
      </trkpt>
      <trkpt lat="45.05341" lon="2.48519">
        <ele>808</ele>
        <time>2025-05-03T13:44:36.549+00:00</time>
      </trkpt>
      <trkpt lat="45.05348" lon="2.48525">
        <ele>818</ele>
        <time>2025-05-03T13:44:40.875+00:00</time>
      </trkpt>
      <trkpt lat="45.05351" lon="2.48532">
        <ele>818</ele>
        <time>2025-05-03T13:44:44.890+00:00</time>
      </trkpt>
      <trkpt lat="45.05353" lon="2.4854">
        <ele>818</ele>
        <time>2025-05-03T13:44:48.916+00:00</time>
      </trkpt>
      <trkpt lat="45.05358" lon="2.48548">
        <ele>820</ele>
        <time>2025-05-03T13:44:53.921+00:00</time>
      </trkpt>
      <trkpt lat="45.05365" lon="2.48548">
        <ele>820</ele>
        <time>2025-05-03T13:44:58.921+00:00</time>
      </trkpt>
      <trkpt lat="45.05371" lon="2.48548">
        <ele>820</ele>
        <time>2025-05-03T13:45:02.974+00:00</time>
      </trkpt>
      <trkpt lat="45.05376" lon="2.48549">
        <ele>832</ele>
        <time>2025-05-03T13:45:07.227+00:00</time>
      </trkpt>
      <trkpt lat="45.05381" lon="2.48552">
        <ele>832</ele>
        <time>2025-05-03T13:45:11.437+00:00</time>
      </trkpt>
      <trkpt lat="45.05386" lon="2.48555">
        <ele>832</ele>
        <time>2025-05-03T13:45:15.631+00:00</time>
      </trkpt>
      <trkpt lat="45.05388" lon="2.48561">
        <ele>832</ele>
        <time>2025-05-03T13:45:19.895+00:00</time>
      </trkpt>
      <trkpt lat="45.05391" lon="2.48566">
        <ele>832</ele>
        <time>2025-05-03T13:45:24.052+00:00</time>
      </trkpt>
      <trkpt lat="45.05394" lon="2.48573">
        <ele>832</ele>
        <time>2025-05-03T13:45:28.593+00:00</time>
      </trkpt>
      <trkpt lat="45.05395" lon="2.48581">
        <ele>832</ele>
        <time>2025-05-03T13:45:32.930+00:00</time>
      </trkpt>
      <trkpt lat="45.05396" lon="2.48587">
        <ele>832</ele>
        <time>2025-05-03T13:45:37.357+00:00</time>
      </trkpt>
      <trkpt lat="45.05398" lon="2.48593">
        <ele>832</ele>
        <time>2025-05-03T13:45:41.438+00:00</time>
      </trkpt>
      <trkpt lat="45.05402" lon="2.48588">
        <ele>832</ele>
        <time>2025-05-03T13:45:45.927+00:00</time>
      </trkpt>
      <trkpt lat="45.05403" lon="2.4858">
        <ele>846</ele>
        <time>2025-05-03T13:45:49.910+00:00</time>
      </trkpt>
      <trkpt lat="45.05409" lon="2.48574">
        <ele>846</ele>
        <time>2025-05-03T13:45:54.575+00:00</time>
      </trkpt>
      <trkpt lat="45.05413" lon="2.4857">
        <ele>846</ele>
        <time>2025-05-03T13:45:58.921+00:00</time>
      </trkpt>
      <trkpt lat="45.05416" lon="2.48563">
        <ele>844</ele>
        <time>2025-05-03T13:46:03.267+00:00</time>
      </trkpt>
      <trkpt lat="45.05416" lon="2.48556">
        <ele>844</ele>
        <time>2025-05-03T13:46:07.277+00:00</time>
      </trkpt>
      <trkpt lat="45.05417" lon="2.48548">
        <ele>844</ele>
        <time>2025-05-03T13:46:11.623+00:00</time>
      </trkpt>
      <trkpt lat="45.05419" lon="2.48542">
        <ele>844</ele>
        <time>2025-05-03T13:46:15.920+00:00</time>
      </trkpt>
      <trkpt lat="45.05419" lon="2.48538">
        <ele>844</ele>
        <time>2025-05-03T13:46:20.921+00:00</time>
      </trkpt>
      <trkpt lat="45.05419" lon="2.48537">
        <ele>844</ele>
        <time>2025-05-03T13:46:24.999+00:00</time>
      </trkpt>
      <trkpt lat="45.05422" lon="2.48528">
        <ele>844</ele>
        <time>2025-05-03T13:46:29.174+00:00</time>
      </trkpt>
      <trkpt lat="45.05428" lon="2.48521">
        <ele>844</ele>
        <time>2025-05-03T13:46:41.921+00:00</time>
      </trkpt>
      <trkpt lat="45.05428" lon="2.48529">
        <ele>844</ele>
        <time>2025-05-03T13:46:45.921+00:00</time>
      </trkpt>
      <trkpt lat="45.05428" lon="2.48538">
        <ele>844</ele>
        <time>2025-05-03T13:46:50.415+00:00</time>
      </trkpt>
      <trkpt lat="45.05429" lon="2.48547">
        <ele>844</ele>
        <time>2025-05-03T13:46:54.921+00:00</time>
      </trkpt>
      <trkpt lat="45.0543" lon="2.48554">
        <ele>844</ele>
        <time>2025-05-03T13:46:59.375+00:00</time>
      </trkpt>
      <trkpt lat="45.05435" lon="2.48552">
        <ele>860</ele>
        <time>2025-05-03T13:47:03.574+00:00</time>
      </trkpt>
      <trkpt lat="45.05436" lon="2.48543">
        <ele>860</ele>
        <time>2025-05-03T13:47:07.793+00:00</time>
      </trkpt>
      <trkpt lat="45.05437" lon="2.48535">
        <ele>858</ele>
        <time>2025-05-03T13:47:11.851+00:00</time>
      </trkpt>
      <trkpt lat="45.05438" lon="2.48527">
        <ele>858</ele>
        <time>2025-05-03T13:47:15.990+00:00</time>
      </trkpt>
      <trkpt lat="45.05441" lon="2.4852">
        <ele>858</ele>
        <time>2025-05-03T13:47:20.197+00:00</time>
      </trkpt>
      <trkpt lat="45.05443" lon="2.48512">
        <ele>855</ele>
        <time>2025-05-03T13:47:24.795+00:00</time>
      </trkpt>
      <trkpt lat="45.05446" lon="2.48504">
        <ele>855</ele>
        <time>2025-05-03T13:47:29.921+00:00</time>
      </trkpt>
      <trkpt lat="45.05447" lon="2.48496">
        <ele>855</ele>
        <time>2025-05-03T13:47:34.915+00:00</time>
      </trkpt>
      <trkpt lat="45.05459" lon="2.48499">
        <ele>870</ele>
        <time>2025-05-03T13:47:56.343+00:00</time>
      </trkpt>
      <trkpt lat="45.05459" lon="2.48491">
        <ele>870</ele>
        <time>2025-05-03T13:48:00.859+00:00</time>
      </trkpt>
      <trkpt lat="45.05463" lon="2.48494">
        <ele>870</ele>
        <time>2025-05-03T13:48:04.920+00:00</time>
      </trkpt>
      <trkpt lat="45.05464" lon="2.48502">
        <ele>870</ele>
        <time>2025-05-03T13:48:09.581+00:00</time>
      </trkpt>
      <trkpt lat="45.05465" lon="2.48508">
        <ele>870</ele>
        <time>2025-05-03T13:48:13.626+00:00</time>
      </trkpt>
      <trkpt lat="45.05466" lon="2.48514">
        <ele>874</ele>
        <time>2025-05-03T13:48:17.698+00:00</time>
      </trkpt>
      <trkpt lat="45.05465" lon="2.48521">
        <ele>874</ele>
        <time>2025-05-03T13:48:21.920+00:00</time>
      </trkpt>
      <trkpt lat="45.05464" lon="2.48526">
        <ele>874</ele>
        <time>2025-05-03T13:48:26.398+00:00</time>
      </trkpt>
      <trkpt lat="45.05463" lon="2.48529">
        <ele>874</ele>
        <time>2025-05-03T13:48:30.717+00:00</time>
      </trkpt>
      <trkpt lat="45.05464" lon="2.4853">
        <ele>874</ele>
        <time>2025-05-03T13:48:34.920+00:00</time>
      </trkpt>
      <trkpt lat="45.05461" lon="2.48528">
        <ele>874</ele>
        <time>2025-05-03T13:48:39.199+00:00</time>
      </trkpt>
      <trkpt lat="45.05457" lon="2.48528">
        <ele>858</ele>
        <time>2025-05-03T13:48:43.400+00:00</time>
      </trkpt>
      <trkpt lat="45.05457" lon="2.48532">
        <ele>858</ele>
        <time>2025-05-03T13:48:47.737+00:00</time>
      </trkpt>
      <trkpt lat="45.05455" lon="2.48537">
        <ele>858</ele>
        <time>2025-05-03T13:48:52.398+00:00</time>
      </trkpt>
      <trkpt lat="45.0545" lon="2.48536">
        <ele>858</ele>
        <time>2025-05-03T13:48:56.878+00:00</time>
      </trkpt>
      <trkpt lat="45.05447" lon="2.48531">
        <ele>858</ele>
        <time>2025-05-03T13:49:01.298+00:00</time>
      </trkpt>
      <trkpt lat="45.05445" lon="2.48526">
        <ele>858</ele>
        <time>2025-05-03T13:49:05.899+00:00</time>
      </trkpt>
      <trkpt lat="45.05445" lon="2.48525">
        <ele>858</ele>
        <time>2025-05-03T13:49:10.920+00:00</time>
      </trkpt>
      <trkpt lat="45.05445" lon="2.48526">
        <ele>858</ele>
        <time>2025-05-03T13:49:45.920+00:00</time>
      </trkpt>
      <trkpt lat="45.05446" lon="2.48527">
        <ele>858</ele>
        <time>2025-05-03T13:49:50.554+00:00</time>
      </trkpt>
      <trkpt lat="45.05448" lon="2.48527">
        <ele>858</ele>
        <time>2025-05-03T13:49:55.919+00:00</time>
      </trkpt>
      <trkpt lat="45.05451" lon="2.48532">
        <ele>858</ele>
        <time>2025-05-03T13:49:59.920+00:00</time>
      </trkpt>
      <trkpt lat="45.05455" lon="2.48533">
        <ele>858</ele>
        <time>2025-05-03T13:50:04.332+00:00</time>
      </trkpt>
      <trkpt lat="45.05456" lon="2.48528">
        <ele>858</ele>
        <time>2025-05-03T13:50:08.438+00:00</time>
      </trkpt>
      <trkpt lat="45.05456" lon="2.48523">
        <ele>858</ele>
        <time>2025-05-03T13:50:12.621+00:00</time>
      </trkpt>
      <trkpt lat="45.05458" lon="2.48521">
        <ele>874</ele>
        <time>2025-05-03T13:50:17.178+00:00</time>
      </trkpt>
      <trkpt lat="45.05462" lon="2.48523">
        <ele>874</ele>
        <time>2025-05-03T13:50:21.659+00:00</time>
      </trkpt>
      <trkpt lat="45.05461" lon="2.48517">
        <ele>874</ele>
        <time>2025-05-03T13:50:25.715+00:00</time>
      </trkpt>
      <trkpt lat="45.05459" lon="2.48512">
        <ele>870</ele>
        <time>2025-05-03T13:50:29.760+00:00</time>
      </trkpt>
      <trkpt lat="45.05454" lon="2.48508">
        <ele>855</ele>
        <time>2025-05-03T13:50:33.779+00:00</time>
      </trkpt>
      <trkpt lat="45.05451" lon="2.48502">
        <ele>855</ele>
        <time>2025-05-03T13:50:38.576+00:00</time>
      </trkpt>
      <trkpt lat="45.05446" lon="2.485">
        <ele>855</ele>
        <time>2025-05-03T13:50:42.997+00:00</time>
      </trkpt>
      <trkpt lat="45.05444" lon="2.48511">
        <ele>855</ele>
        <time>2025-05-03T13:51:05.375+00:00</time>
      </trkpt>
      <trkpt lat="45.05447" lon="2.48518">
        <ele>858</ele>
        <time>2025-05-03T13:51:09.557+00:00</time>
      </trkpt>
      <trkpt lat="45.05448" lon="2.48525">
        <ele>858</ele>
        <time>2025-05-03T13:51:13.892+00:00</time>
      </trkpt>
      <trkpt lat="45.05446" lon="2.48533">
        <ele>858</ele>
        <time>2025-05-03T13:51:18.681+00:00</time>
      </trkpt>
      <trkpt lat="45.05445" lon="2.48539">
        <ele>858</ele>
        <time>2025-05-03T13:51:22.920+00:00</time>
      </trkpt>
      <trkpt lat="45.05443" lon="2.48547">
        <ele>860</ele>
        <time>2025-05-03T13:51:27.573+00:00</time>
      </trkpt>
      <trkpt lat="45.0544" lon="2.48553">
        <ele>860</ele>
        <time>2025-05-03T13:51:31.653+00:00</time>
      </trkpt>
      <trkpt lat="45.05434" lon="2.48541">
        <ele>858</ele>
        <time>2025-05-03T13:51:35.817+00:00</time>
      </trkpt>
      <trkpt lat="45.0543" lon="2.48528">
        <ele>844</ele>
        <time>2025-05-03T13:51:39.920+00:00</time>
      </trkpt>
      <trkpt lat="45.05424" lon="2.48513">
        <ele>842</ele>
        <time>2025-05-03T13:51:44.778+00:00</time>
      </trkpt>
      <trkpt lat="45.05422" lon="2.48524">
        <ele>844</ele>
        <time>2025-05-03T13:51:49.380+00:00</time>
      </trkpt>
      <trkpt lat="45.05419" lon="2.48539">
        <ele>844</ele>
        <time>2025-05-03T13:51:53.740+00:00</time>
      </trkpt>
      <trkpt lat="45.05416" lon="2.48552">
        <ele>844</ele>
        <time>2025-05-03T13:51:58.254+00:00</time>
      </trkpt>
      <trkpt lat="45.05413" lon="2.48564">
        <ele>844</ele>
        <time>2025-05-03T13:52:02.777+00:00</time>
      </trkpt>
      <trkpt lat="45.05406" lon="2.48568">
        <ele>844</ele>
        <time>2025-05-03T13:52:06.814+00:00</time>
      </trkpt>
      <trkpt lat="45.05399" lon="2.48574">
        <ele>832</ele>
        <time>2025-05-03T13:52:11.355+00:00</time>
      </trkpt>
      <trkpt lat="45.05395" lon="2.48582">
        <ele>832</ele>
        <time>2025-05-03T13:52:15.920+00:00</time>
      </trkpt>
      <trkpt lat="45.05393" lon="2.48572">
        <ele>832</ele>
        <time>2025-05-03T13:52:20.461+00:00</time>
      </trkpt>
      <trkpt lat="45.05388" lon="2.48564">
        <ele>832</ele>
        <time>2025-05-03T13:52:24.920+00:00</time>
      </trkpt>
      <trkpt lat="45.05383" lon="2.48561">
        <ele>832</ele>
        <time>2025-05-03T13:52:29.319+00:00</time>
      </trkpt>
      <trkpt lat="45.05376" lon="2.48556">
        <ele>832</ele>
        <time>2025-05-03T13:52:33.773+00:00</time>
      </trkpt>
      <trkpt lat="45.0537" lon="2.48551">
        <ele>820</ele>
        <time>2025-05-03T13:52:37.919+00:00</time>
      </trkpt>
      <trkpt lat="45.05363" lon="2.48549">
        <ele>820</ele>
        <time>2025-05-03T13:52:42.478+00:00</time>
      </trkpt>
      <trkpt lat="45.05357" lon="2.48548">
        <ele>820</ele>
        <time>2025-05-03T13:52:46.515+00:00</time>
      </trkpt>
      <trkpt lat="45.05354" lon="2.4854">
        <ele>818</ele>
        <time>2025-05-03T13:52:50.919+00:00</time>
      </trkpt>
      <trkpt lat="45.05338" lon="2.48533">
        <ele>808</ele>
        <time>2025-05-03T13:53:08.600+00:00</time>
      </trkpt>
      <trkpt lat="45.05339" lon="2.48542">
        <ele>807</ele>
        <time>2025-05-03T13:53:12.919+00:00</time>
      </trkpt>
      <trkpt lat="45.05339" lon="2.48552">
        <ele>807</ele>
        <time>2025-05-03T13:53:17.817+00:00</time>
      </trkpt>
      <trkpt lat="45.05337" lon="2.48561">
        <ele>807</ele>
        <time>2025-05-03T13:53:22.459+00:00</time>
      </trkpt>
      <trkpt lat="45.05334" lon="2.48568">
        <ele>807</ele>
        <time>2025-05-03T13:53:26.919+00:00</time>
      </trkpt>
      <trkpt lat="45.05331" lon="2.48574">
        <ele>805</ele>
        <time>2025-05-03T13:53:31.318+00:00</time>
      </trkpt>
      <trkpt lat="45.05329" lon="2.48583">
        <ele>805</ele>
        <time>2025-05-03T13:53:35.919+00:00</time>
      </trkpt>
      <trkpt lat="45.05327" lon="2.48594">
        <ele>805</ele>
        <time>2025-05-03T13:53:40.919+00:00</time>
      </trkpt>
      <trkpt lat="45.05327" lon="2.48601">
        <ele>802</ele>
        <time>2025-05-03T13:53:44.919+00:00</time>
      </trkpt>
      <trkpt lat="45.05326" lon="2.48604">
        <ele>802</ele>
        <time>2025-05-03T13:54:03.099+00:00</time>
      </trkpt>
      <trkpt lat="45.05327" lon="2.48605">
        <ele>802</ele>
        <time>2025-05-03T13:54:07.919+00:00</time>
      </trkpt>
      <trkpt lat="45.05328" lon="2.48611">
        <ele>802</ele>
        <time>2025-05-03T13:54:12.761+00:00</time>
      </trkpt>
      <trkpt lat="45.05327" lon="2.48616">
        <ele>802</ele>
        <time>2025-05-03T13:54:16.919+00:00</time>
      </trkpt>
      <trkpt lat="45.05323" lon="2.48615">
        <ele>802</ele>
        <time>2025-05-03T13:54:21.738+00:00</time>
      </trkpt>
      <trkpt lat="45.05322" lon="2.48622">
        <ele>802</ele>
        <time>2025-05-03T13:54:25.919+00:00</time>
      </trkpt>
      <trkpt lat="45.05324" lon="2.48626">
        <ele>804</ele>
        <time>2025-05-03T13:54:29.919+00:00</time>
      </trkpt>
      <trkpt lat="45.05328" lon="2.48631">
        <ele>804</ele>
        <time>2025-05-03T13:54:34.919+00:00</time>
      </trkpt>
      <trkpt lat="45.05327" lon="2.48638">
        <ele>804</ele>
        <time>2025-05-03T13:54:39.292+00:00</time>
      </trkpt>
    </trkseg>
  </trk>
</gpx>